sensor_id;sensor_type;location;lat;lon;timestamp;P1;durP1;ratioP1;P2;durP2;ratioP2
20179;SDS011;10249;48.900;9.090;2023-11-19T00:00:19;3.00;;;2.90;;
20179;SDS011;10249;48.900;9.090;2023-11-19T00:02:46;2.80;;;2.70;;
20179;SDS011;10249;48.900;9.090;2023-11-19T00:05:13;2.83;;;2.73;;
20179;SDS011;10249;48.900;9.090;2023-11-19T00:07:40;1.80;;;1.80;;
20179;SDS011;10249;48.900;9.090;2023-11-19T00:10:09;1.77;;;1.77;;
20179;SDS011;10249;48.900;9.090;2023-11-19T00:12:37;1.60;;;1.60;;
20179;SDS011;10249;48.900;9.090;2023-11-19T00:15:05;1.30;;;1.30;;
20179;SDS011;10249;48.900;9.090;2023-11-19T00:17:36;2.10;;;2.00;;
20179;SDS011;10249;48.900;9.090;2023-11-19T00:20:04;2.40;;;2.30;;
20179;SDS011;10249;48.900;9.090;2023-11-19T00:22:31;2.30;;;2.20;;
20179;SDS011;10249;48.900;9.090;2023-11-19T00:24:59;2.60;;;2.50;;
20179;SDS011;10249;48.900;9.090;2023-11-19T00:27:27;2.80;;;2.70;;
20179;SDS011;10249;48.900;9.090;2023-11-19T00:29:55;2.80;;;2.70;;
20179;SDS011;10249;48.900;9.090;2023-11-19T00:32:22;2.90;;;2.80;;
20179;SDS011;10249;48.900;9.090;2023-11-19T00:34:49;2.60;;;2.50;;
20179;SDS011;10249;48.900;9.090;2023-11-19T00:37:16;2.70;;;2.60;;
20179;SDS011;10249;48.900;9.090;2023-11-19T00:39:43;2.50;;;2.40;;
20179;SDS011;10249;48.900;9.090;2023-11-19T00:42:11;2.60;;;2.50;;
20179;SDS011;10249;48.900;9.090;2023-11-19T00:44:40;2.30;;;2.20;;
20179;SDS011;10249;48.900;9.090;2023-11-19T00:47:07;2.40;;;2.30;;
20179;SDS011;10249;48.900;9.090;2023-11-19T00:49:34;2.30;;;2.20;;
20179;SDS011;10249;48.900;9.090;2023-11-19T00:52:01;2.10;;;2.00;;
20179;SDS011;10249;48.900;9.090;2023-11-19T00:54:28;1.83;;;1.83;;
20179;SDS011;10249;48.900;9.090;2023-11-19T00:56:55;1.80;;;1.80;;
20179;SDS011;10249;48.900;9.090;2023-11-19T00:59:22;1.73;;;1.73;;
20179;SDS011;10249;48.900;9.090;2023-11-19T01:01:51;1.60;;;1.60;;
20179;SDS011;10249;48.900;9.090;2023-11-19T01:04:18;1.70;;;1.70;;
20179;SDS011;10249;48.900;9.090;2023-11-19T01:06:46;1.70;;;1.70;;
20179;SDS011;10249;48.900;9.090;2023-11-19T01:09:13;1.67;;;1.67;;
20179;SDS011;10249;48.900;9.090;2023-11-19T01:11:40;1.60;;;1.60;;
20179;SDS011;10249;48.900;9.090;2023-11-19T01:14:07;1.50;;;1.50;;
20179;SDS011;10249;48.900;9.090;2023-11-19T01:16:35;1.57;;;1.57;;
20179;SDS011;10249;48.900;9.090;2023-11-19T01:19:03;1.40;;;1.40;;
20179;SDS011;10249;48.900;9.090;2023-11-19T01:21:31;1.40;;;1.40;;
20179;SDS011;10249;48.900;9.090;2023-11-19T01:23:58;1.40;;;1.40;;
20179;SDS011;10249;48.900;9.090;2023-11-19T01:26:25;1.20;;;1.20;;
20179;SDS011;10249;48.900;9.090;2023-11-19T01:28:53;1.30;;;1.30;;
20179;SDS011;10249;48.900;9.090;2023-11-19T01:31:20;1.30;;;1.30;;
20179;SDS011;10249;48.900;9.090;2023-11-19T01:33:47;1.40;;;1.40;;
20179;SDS011;10249;48.900;9.090;2023-11-19T01:36:15;1.20;;;1.20;;
20179;SDS011;10249;48.900;9.090;2023-11-19T01:38:42;1.30;;;1.30;;
20179;SDS011;10249;48.900;9.090;2023-11-19T01:41:09;1.30;;;1.30;;
20179;SDS011;10249;48.900;9.090;2023-11-19T01:43:37;1.30;;;1.30;;
20179;SDS011;10249;48.900;9.090;2023-11-19T01:46:06;1.40;;;1.40;;
20179;SDS011;10249;48.900;9.090;2023-11-19T01:48:35;1.20;;;1.20;;
20179;SDS011;10249;48.900;9.090;2023-11-19T01:51:04;1.20;;;1.20;;
20179;SDS011;10249;48.900;9.090;2023-11-19T01:53:33;1.30;;;1.30;;
20179;SDS011;10249;48.900;9.090;2023-11-19T01:56:01;1.47;;;1.47;;
20179;SDS011;10249;48.900;9.090;2023-11-19T01:58:29;1.30;;;1.30;;
20179;SDS011;10249;48.900;9.090;2023-11-19T02:00:56;1.30;;;1.30;;
20179;SDS011;10249;48.900;9.090;2023-11-19T02:03:23;1.23;;;1.23;;
20179;SDS011;10249;48.900;9.090;2023-11-19T02:05:51;1.20;;;1.20;;
20179;SDS011;10249;48.900;9.090;2023-11-19T02:08:18;1.30;;;1.30;;
20179;SDS011;10249;48.900;9.090;2023-11-19T02:10:47;1.20;;;1.20;;
20179;SDS011;10249;48.900;9.090;2023-11-19T02:13:14;1.10;;;1.10;;
20179;SDS011;10249;48.900;9.090;2023-11-19T02:15:42;1.20;;;1.20;;
20179;SDS011;10249;48.900;9.090;2023-11-19T02:20:54;1.20;;;1.20;;
20179;SDS011;10249;48.900;9.090;2023-11-19T02:23:21;1.20;;;1.20;;
20179;SDS011;10249;48.900;9.090;2023-11-19T02:25:54;1.10;;;1.10;;
20179;SDS011;10249;48.900;9.090;2023-11-19T02:28:25;1.20;;;1.20;;
20179;SDS011;10249;48.900;9.090;2023-11-19T02:30:52;1.10;;;1.10;;
20179;SDS011;10249;48.900;9.090;2023-11-19T02:33:19;1.10;;;1.10;;
20179;SDS011;10249;48.900;9.090;2023-11-19T02:35:46;1.20;;;1.20;;
20179;SDS011;10249;48.900;9.090;2023-11-19T02:38:14;1.30;;;1.30;;
20179;SDS011;10249;48.900;9.090;2023-11-19T02:40:41;1.20;;;1.20;;
20179;SDS011;10249;48.900;9.090;2023-11-19T02:43:08;1.20;;;1.20;;
20179;SDS011;10249;48.900;9.090;2023-11-19T02:45:37;1.30;;;1.30;;
20179;SDS011;10249;48.900;9.090;2023-11-19T02:48:04;1.33;;;1.33;;
20179;SDS011;10249;48.900;9.090;2023-11-19T02:50:32;1.20;;;1.20;;
20179;SDS011;10249;48.900;9.090;2023-11-19T02:52:59;1.20;;;1.20;;
20179;SDS011;10249;48.900;9.090;2023-11-19T02:55:26;1.30;;;1.30;;
20179;SDS011;10249;48.900;9.090;2023-11-19T02:57:56;1.20;;;1.20;;
20179;SDS011;10249;48.900;9.090;2023-11-19T03:00:24;1.40;;;1.40;;
20179;SDS011;10249;48.900;9.090;2023-11-19T03:03:00;1.40;;;1.40;;
20179;SDS011;10249;48.900;9.090;2023-11-19T03:05:42;1.37;;;1.37;;
20179;SDS011;10249;48.900;9.090;2023-11-19T03:08:11;1.30;;;1.30;;
20179;SDS011;10249;48.900;9.090;2023-11-19T03:10:38;1.40;;;1.40;;
20179;SDS011;10249;48.900;9.090;2023-11-19T03:13:05;1.40;;;1.40;;
20179;SDS011;10249;48.900;9.090;2023-11-19T03:15:38;1.40;;;1.40;;
20179;SDS011;10249;48.900;9.090;2023-11-19T03:18:06;1.43;;;1.43;;
20179;SDS011;10249;48.900;9.090;2023-11-19T03:20:33;1.57;;;1.57;;
20179;SDS011;10249;48.900;9.090;2023-11-19T03:23:00;1.40;;;1.40;;
20179;SDS011;10249;48.900;9.090;2023-11-19T03:25:27;1.50;;;1.50;;
20179;SDS011;10249;48.900;9.090;2023-11-19T03:27:58;1.70;;;1.70;;
20179;SDS011;10249;48.900;9.090;2023-11-19T03:30:25;1.70;;;1.70;;
20179;SDS011;10249;48.900;9.090;2023-11-19T03:32:53;1.80;;;1.80;;
20179;SDS011;10249;48.900;9.090;2023-11-19T03:35:22;1.97;;;1.87;;
20179;SDS011;10249;48.900;9.090;2023-11-19T03:37:49;2.10;;;2.00;;
20179;SDS011;10249;48.900;9.090;2023-11-19T03:40:16;1.70;;;1.70;;
20179;SDS011;10249;48.900;9.090;2023-11-19T03:42:45;2.10;;;2.00;;
20179;SDS011;10249;48.900;9.090;2023-11-19T03:45:12;1.90;;;1.90;;
20179;SDS011;10249;48.900;9.090;2023-11-19T03:47:40;2.00;;;1.90;;
20179;SDS011;10249;48.900;9.090;2023-11-19T03:50:08;1.80;;;1.80;;
20179;SDS011;10249;48.900;9.090;2023-11-19T03:52:36;2.00;;;1.90;;
20179;SDS011;10249;48.900;9.090;2023-11-19T03:55:04;1.70;;;1.70;;
20179;SDS011;10249;48.900;9.090;2023-11-19T03:57:33;1.53;;;1.53;;
20179;SDS011;10249;48.900;9.090;2023-11-19T04:00:00;1.40;;;1.40;;
20179;SDS011;10249;48.900;9.090;2023-11-19T04:02:34;1.23;;;1.23;;
20179;SDS011;10249;48.900;9.090;2023-11-19T04:05:01;1.30;;;1.30;;
20179;SDS011;10249;48.900;9.090;2023-11-19T04:07:29;1.27;;;1.27;;
20179;SDS011;10249;48.900;9.090;2023-11-19T04:09:58;1.20;;;1.20;;
20179;SDS011;10249;48.900;9.090;2023-11-19T04:12:25;1.10;;;1.10;;
20179;SDS011;10249;48.900;9.090;2023-11-19T04:14:52;1.10;;;1.10;;
20179;SDS011;10249;48.900;9.090;2023-11-19T04:17:19;1.10;;;1.10;;
20179;SDS011;10249;48.900;9.090;2023-11-19T04:19:48;1.10;;;1.10;;
20179;SDS011;10249;48.900;9.090;2023-11-19T04:22:15;1.10;;;1.10;;
20179;SDS011;10249;48.900;9.090;2023-11-19T04:24:42;1.13;;;1.13;;
20179;SDS011;10249;48.900;9.090;2023-11-19T04:27:12;1.13;;;1.13;;
20179;SDS011;10249;48.900;9.090;2023-11-19T04:29:39;1.20;;;1.20;;
20179;SDS011;10249;48.900;9.090;2023-11-19T04:32:06;1.10;;;1.10;;
20179;SDS011;10249;48.900;9.090;2023-11-19T04:34:34;1.20;;;1.20;;
20179;SDS011;10249;48.900;9.090;2023-11-19T04:37:02;1.10;;;1.10;;
20179;SDS011;10249;48.900;9.090;2023-11-19T04:39:29;1.13;;;1.13;;
20179;SDS011;10249;48.900;9.090;2023-11-19T04:41:56;1.20;;;1.20;;
20179;SDS011;10249;48.900;9.090;2023-11-19T04:44:25;1.20;;;1.20;;
20179;SDS011;10249;48.900;9.090;2023-11-19T04:46:54;1.20;;;1.20;;
20179;SDS011;10249;48.900;9.090;2023-11-19T04:49:21;1.20;;;1.20;;
20179;SDS011;10249;48.900;9.090;2023-11-19T04:51:48;1.10;;;1.10;;
20179;SDS011;10249;48.900;9.090;2023-11-19T04:54:16;1.10;;;1.10;;
20179;SDS011;10249;48.900;9.090;2023-11-19T04:56:45;1.10;;;1.10;;
20179;SDS011;10249;48.900;9.090;2023-11-19T04:59:12;1.10;;;1.10;;
20179;SDS011;10249;48.900;9.090;2023-11-19T05:01:40;1.00;;;1.00;;
20179;SDS011;10249;48.900;9.090;2023-11-19T05:04:08;1.10;;;1.10;;
20179;SDS011;10249;48.900;9.090;2023-11-19T05:06:35;1.03;;;1.03;;
20179;SDS011;10249;48.900;9.090;2023-11-19T05:09:02;1.10;;;1.10;;
20179;SDS011;10249;48.900;9.090;2023-11-19T05:11:32;1.10;;;1.10;;
20179;SDS011;10249;48.900;9.090;2023-11-19T05:14:00;1.40;;;1.40;;
20179;SDS011;10249;48.900;9.090;2023-11-19T05:16:28;1.60;;;1.60;;
20179;SDS011;10249;48.900;9.090;2023-11-19T05:18:57;2.10;;;2.00;;
20179;SDS011;10249;48.900;9.090;2023-11-19T05:21:24;2.10;;;2.00;;
20179;SDS011;10249;48.900;9.090;2023-11-19T05:23:51;2.60;;;2.50;;
20179;SDS011;10249;48.900;9.090;2023-11-19T05:26:19;2.77;;;2.67;;
20179;SDS011;10249;48.900;9.090;2023-11-19T05:28:47;2.97;;;2.87;;
20179;SDS011;10249;48.900;9.090;2023-11-19T05:31:14;3.10;;;3.00;;
20179;SDS011;10249;48.900;9.090;2023-11-19T05:33:41;3.50;;;3.40;;
20179;SDS011;10249;48.900;9.090;2023-11-19T05:36:11;4.00;;;3.90;;
20179;SDS011;10249;48.900;9.090;2023-11-19T05:38:39;4.20;;;4.10;;
20179;SDS011;10249;48.900;9.090;2023-11-19T05:41:06;4.90;;;4.80;;
20179;SDS011;10249;48.900;9.090;2023-11-19T05:43:33;4.60;;;4.50;;
20179;SDS011;10249;48.900;9.090;2023-11-19T05:46:00;4.70;;;4.60;;
20179;SDS011;10249;48.900;9.090;2023-11-19T05:48:28;5.47;;;5.27;;
20179;SDS011;10249;48.900;9.090;2023-11-19T05:50:55;4.70;;;4.60;;
20179;SDS011;10249;48.900;9.090;2023-11-19T05:53:23;4.80;;;4.70;;
20179;SDS011;10249;48.900;9.090;2023-11-19T05:55:50;5.30;;;5.10;;
20179;SDS011;10249;48.900;9.090;2023-11-19T05:58:22;5.10;;;5.00;;
20179;SDS011;10249;48.900;9.090;2023-11-19T06:00:51;4.50;;;4.40;;
20179;SDS011;10249;48.900;9.090;2023-11-19T06:03:19;5.30;;;5.10;;
20179;SDS011;10249;48.900;9.090;2023-11-19T06:05:46;5.13;;;5.03;;
20179;SDS011;10249;48.900;9.090;2023-11-19T06:08:14;5.40;;;5.20;;
20179;SDS011;10249;48.900;9.090;2023-11-19T06:10:42;5.50;;;5.30;;
20179;SDS011;10249;48.900;9.090;2023-11-19T06:13:12;5.73;;;5.53;;
20179;SDS011;10249;48.900;9.090;2023-11-19T06:15:40;5.47;;;5.27;;
20179;SDS011;10249;48.900;9.090;2023-11-19T06:18:07;6.07;;;5.87;;
20179;SDS011;10249;48.900;9.090;2023-11-19T06:20:35;5.90;;;5.70;;
20179;SDS011;10249;48.900;9.090;2023-11-19T06:23:02;5.90;;;5.70;;
20179;SDS011;10249;48.900;9.090;2023-11-19T06:25:29;6.00;;;5.80;;
20179;SDS011;10249;48.900;9.090;2023-11-19T06:27:57;6.30;;;6.10;;
20179;SDS011;10249;48.900;9.090;2023-11-19T06:30:24;6.20;;;6.00;;
20179;SDS011;10249;48.900;9.090;2023-11-19T06:32:53;5.57;;;5.37;;
20179;SDS011;10249;48.900;9.090;2023-11-19T06:35:20;5.97;;;5.77;;
20179;SDS011;10249;48.900;9.090;2023-11-19T06:37:47;5.90;;;5.70;;
20179;SDS011;10249;48.900;9.090;2023-11-19T06:40:14;5.90;;;5.70;;
20179;SDS011;10249;48.900;9.090;2023-11-19T06:42:41;6.20;;;6.00;;
20179;SDS011;10249;48.900;9.090;2023-11-19T06:45:10;5.80;;;5.60;;
20179;SDS011;10249;48.900;9.090;2023-11-19T06:47:37;6.10;;;5.90;;
20179;SDS011;10249;48.900;9.090;2023-11-19T06:50:06;5.97;;;5.77;;
20179;SDS011;10249;48.900;9.090;2023-11-19T06:52:34;5.80;;;5.60;;
20179;SDS011;10249;48.900;9.090;2023-11-19T06:55:02;5.73;;;5.53;;
20179;SDS011;10249;48.900;9.090;2023-11-19T06:57:29;6.10;;;5.90;;
20179;SDS011;10249;48.900;9.090;2023-11-19T06:59:57;6.20;;;6.00;;
20179;SDS011;10249;48.900;9.090;2023-11-19T07:02:26;6.07;;;5.87;;
20179;SDS011;10249;48.900;9.090;2023-11-19T07:04:53;5.80;;;5.60;;
20179;SDS011;10249;48.900;9.090;2023-11-19T07:07:21;5.67;;;5.47;;
20179;SDS011;10249;48.900;9.090;2023-11-19T07:09:48;5.10;;;5.00;;
20179;SDS011;10249;48.900;9.090;2023-11-19T07:12:15;4.37;;;4.27;;
20179;SDS011;10249;48.900;9.090;2023-11-19T07:14:42;4.50;;;4.40;;
20179;SDS011;10249;48.900;9.090;2023-11-19T07:17:09;4.23;;;4.13;;
20179;SDS011;10249;48.900;9.090;2023-11-19T07:19:37;4.10;;;4.00;;
20179;SDS011;10249;48.900;9.090;2023-11-19T07:22:05;4.00;;;3.90;;
20179;SDS011;10249;48.900;9.090;2023-11-19T07:24:32;3.40;;;3.30;;
20179;SDS011;10249;48.900;9.090;2023-11-19T07:27:00;3.50;;;3.40;;
20179;SDS011;10249;48.900;9.090;2023-11-19T07:29:29;4.30;;;4.20;;
20179;SDS011;10249;48.900;9.090;2023-11-19T07:31:56;4.20;;;4.10;;
20179;SDS011;10249;48.900;9.090;2023-11-19T07:34:23;4.17;;;4.07;;
20179;SDS011;10249;48.900;9.090;2023-11-19T07:36:52;4.10;;;4.00;;
20179;SDS011;10249;48.900;9.090;2023-11-19T07:39:19;3.83;;;3.73;;
20179;SDS011;10249;48.900;9.090;2023-11-19T07:41:47;3.70;;;3.60;;
20179;SDS011;10249;48.900;9.090;2023-11-19T07:44:14;3.70;;;3.60;;
20179;SDS011;10249;48.900;9.090;2023-11-19T07:46:41;3.70;;;3.60;;
20179;SDS011;10249;48.900;9.090;2023-11-19T07:49:10;3.00;;;2.90;;
20179;SDS011;10249;48.900;9.090;2023-11-19T07:51:37;3.70;;;3.60;;
20179;SDS011;10249;48.900;9.090;2023-11-19T07:54:06;3.67;;;3.57;;
20179;SDS011;10249;48.900;9.090;2023-11-19T07:56:33;3.60;;;3.50;;
20179;SDS011;10249;48.900;9.090;2023-11-19T07:59:01;3.50;;;3.40;;
20179;SDS011;10249;48.900;9.090;2023-11-19T08:01:28;3.67;;;3.57;;
20179;SDS011;10249;48.900;9.090;2023-11-19T08:03:55;3.60;;;3.50;;
20179;SDS011;10249;48.900;9.090;2023-11-19T08:06:22;3.87;;;3.77;;
20179;SDS011;10249;48.900;9.090;2023-11-19T08:08:49;4.00;;;3.90;;
20179;SDS011;10249;48.900;9.090;2023-11-19T08:11:18;4.00;;;3.90;;
20179;SDS011;10249;48.900;9.090;2023-11-19T08:13:45;4.30;;;4.20;;
20179;SDS011;10249;48.900;9.090;2023-11-19T08:16:12;4.47;;;4.37;;
20179;SDS011;10249;48.900;9.090;2023-11-19T08:18:41;5.83;;;5.53;;
20179;SDS011;10249;48.900;9.090;2023-11-19T08:21:11;4.47;;;4.37;;
20179;SDS011;10249;48.900;9.090;2023-11-19T08:23:38;4.93;;;4.83;;
20179;SDS011;10249;48.900;9.090;2023-11-19T08:26:05;4.83;;;4.73;;
20179;SDS011;10249;48.900;9.090;2023-11-19T08:28:34;5.40;;;5.20;;
20179;SDS011;10249;48.900;9.090;2023-11-19T08:31:02;5.07;;;4.97;;
20179;SDS011;10249;48.900;9.090;2023-11-19T08:33:30;5.10;;;5.00;;
20179;SDS011;10249;48.900;9.090;2023-11-19T08:35:57;4.90;;;4.80;;
20179;SDS011;10249;48.900;9.090;2023-11-19T08:38:25;5.30;;;5.10;;
20179;SDS011;10249;48.900;9.090;2023-11-19T08:40:52;4.70;;;4.60;;
20179;SDS011;10249;48.900;9.090;2023-11-19T08:43:24;4.20;;;4.10;;
20179;SDS011;10249;48.900;9.090;2023-11-19T08:45:53;4.27;;;4.17;;
20179;SDS011;10249;48.900;9.090;2023-11-19T08:48:20;4.10;;;4.00;;
20179;SDS011;10249;48.900;9.090;2023-11-19T08:50:47;4.30;;;4.20;;
20179;SDS011;10249;48.900;9.090;2023-11-19T08:53:14;4.07;;;3.97;;
20179;SDS011;10249;48.900;9.090;2023-11-19T08:55:41;4.20;;;4.10;;
20179;SDS011;10249;48.900;9.090;2023-11-19T08:58:08;4.00;;;3.90;;
20179;SDS011;10249;48.900;9.090;2023-11-19T09:00:35;4.50;;;4.40;;
20179;SDS011;10249;48.900;9.090;2023-11-19T09:03:04;4.43;;;4.33;;
20179;SDS011;10249;48.900;9.090;2023-11-19T09:05:32;4.63;;;4.53;;
20179;SDS011;10249;48.900;9.090;2023-11-19T09:07:59;5.60;;;5.40;;
20179;SDS011;10249;48.900;9.090;2023-11-19T09:10:26;5.70;;;5.50;;
20179;SDS011;10249;48.900;9.090;2023-11-19T09:12:54;6.37;;;6.17;;
20179;SDS011;10249;48.900;9.090;2023-11-19T09:15:21;7.70;;;7.50;;
20179;SDS011;10249;48.900;9.090;2023-11-19T09:17:49;8.70;;;8.40;;
20179;SDS011;10249;48.900;9.090;2023-11-19T09:20:17;8.77;;;8.47;;
20179;SDS011;10249;48.900;9.090;2023-11-19T09:22:44;9.83;;;9.53;;
20179;SDS011;10249;48.900;9.090;2023-11-19T09:25:13;9.70;;;9.40;;
20179;SDS011;10249;48.900;9.090;2023-11-19T09:27:42;9.40;;;9.10;;
20179;SDS011;10249;48.900;9.090;2023-11-19T09:30:09;9.47;;;9.17;;
20179;SDS011;10249;48.900;9.090;2023-11-19T09:32:36;9.43;;;9.13;;
20179;SDS011;10249;48.900;9.090;2023-11-19T09:35:04;9.30;;;9.00;;
20179;SDS011;10249;48.900;9.090;2023-11-19T09:37:33;9.20;;;8.90;;
20179;SDS011;10249;48.900;9.090;2023-11-19T09:40:00;9.20;;;8.90;;
20179;SDS011;10249;48.900;9.090;2023-11-19T09:42:27;25.27;;;24.47;;
20179;SDS011;10249;48.900;9.090;2023-11-19T09:44:54;24.40;;;23.60;;
20179;SDS011;10249;48.900;9.090;2023-11-19T09:47:23;25.87;;;25.07;;
20179;SDS011;10249;48.900;9.090;2023-11-19T09:49:50;24.97;;;24.17;;
20179;SDS011;10249;48.900;9.090;2023-11-19T09:52:19;27.57;;;26.67;;
20179;SDS011;10249;48.900;9.090;2023-11-19T09:54:47;25.43;;;24.63;;
20179;SDS011;10249;48.900;9.090;2023-11-19T09:57:14;27.17;;;26.27;;
20179;SDS011;10249;48.900;9.090;2023-11-19T09:59:43;25.47;;;24.67;;
20179;SDS011;10249;48.900;9.090;2023-11-19T10:02:10;25.73;;;24.93;;
20179;SDS011;10249;48.900;9.090;2023-11-19T10:04:38;26.23;;;25.43;;
20179;SDS011;10249;48.900;9.090;2023-11-19T10:07:05;26.27;;;25.47;;
20179;SDS011;10249;48.900;9.090;2023-11-19T10:09:32;26.43;;;25.53;;
20179;SDS011;10249;48.900;9.090;2023-11-19T10:12:00;27.47;;;26.57;;
20179;SDS011;10249;48.900;9.090;2023-11-19T10:14:28;28.33;;;27.43;;
20179;SDS011;10249;48.900;9.090;2023-11-19T10:16:56;27.30;;;26.40;;
20179;SDS011;10249;48.900;9.090;2023-11-19T10:19:23;27.63;;;26.73;;
20179;SDS011;10249;48.900;9.090;2023-11-19T10:21:50;28.83;;;27.93;;
20179;SDS011;10249;48.900;9.090;2023-11-19T10:24:22;30.13;;;29.13;;
20179;SDS011;10249;48.900;9.090;2023-11-19T10:26:59;32.27;;;31.17;;
20179;SDS011;10249;48.900;9.090;2023-11-19T10:29:29;31.60;;;30.60;;
20179;SDS011;10249;48.900;9.090;2023-11-19T10:31:56;31.87;;;30.87;;
20179;SDS011;10249;48.900;9.090;2023-11-19T10:34:26;32.33;;;31.23;;
20179;SDS011;10249;48.900;9.090;2023-11-19T10:36:55;32.03;;;30.93;;
20179;SDS011;10249;48.900;9.090;2023-11-19T10:39:22;32.40;;;31.30;;
20179;SDS011;10249;48.900;9.090;2023-11-19T10:41:49;32.30;;;31.20;;
20179;SDS011;10249;48.900;9.090;2023-11-19T10:44:32;34.10;;;32.90;;
20179;SDS011;10249;48.900;9.090;2023-11-19T10:47:01;34.13;;;33.03;;
20179;SDS011;10249;48.900;9.090;2023-11-19T10:49:28;33.07;;;31.97;;
20179;SDS011;10249;48.900;9.090;2023-11-19T10:51:55;33.67;;;32.57;;
20179;SDS011;10249;48.900;9.090;2023-11-19T10:54:22;34.73;;;33.53;;
20179;SDS011;10249;48.900;9.090;2023-11-19T10:56:51;36.23;;;35.03;;
20179;SDS011;10249;48.900;9.090;2023-11-19T10:59:20;34.07;;;32.90;;
20179;SDS011;10249;48.900;9.090;2023-11-19T11:01:50;36.57;;;35.37;;
20179;SDS011;10249;48.900;9.090;2023-11-19T11:04:22;36.03;;;34.83;;
20179;SDS011;10249;48.900;9.090;2023-11-19T11:06:50;35.63;;;34.43;;
20179;SDS011;10249;48.900;9.090;2023-11-19T11:09:18;35.27;;;34.07;;
20179;SDS011;10249;48.900;9.090;2023-11-19T11:11:46;34.60;;;33.43;;
20179;SDS011;10249;48.900;9.090;2023-11-19T11:14:13;10.60;;;10.20;;
20179;SDS011;10249;48.900;9.090;2023-11-19T11:16:41;10.63;;;10.23;;
20179;SDS011;10249;48.900;9.090;2023-11-19T11:19:10;10.57;;;10.17;;
20179;SDS011;10249;48.900;9.090;2023-11-19T11:21:38;10.80;;;10.30;;
20179;SDS011;10249;48.900;9.090;2023-11-19T11:24:11;10.30;;;9.90;;
20179;SDS011;10249;48.900;9.090;2023-11-19T11:27:02;10.40;;;10.00;;
20179;SDS011;10249;48.900;9.090;2023-11-19T11:29:37;10.80;;;10.40;;
20179;SDS011;10249;48.900;9.090;2023-11-19T11:32:08;10.10;;;9.80;;
20179;SDS011;10249;48.900;9.090;2023-11-19T11:34:47;10.73;;;10.33;;
20179;SDS011;10249;48.900;9.090;2023-11-19T11:37:18;10.30;;;9.90;;
20179;SDS011;10249;48.900;9.090;2023-11-19T11:39:45;10.40;;;10.00;;
20179;SDS011;10249;48.900;9.090;2023-11-19T11:42:33;10.60;;;10.20;;
20179;SDS011;10249;48.900;9.090;2023-11-19T11:45:00;10.60;;;10.20;;
20179;SDS011;10249;48.900;9.090;2023-11-19T11:50:13;10.60;;;10.20;;
20179;SDS011;10249;48.900;9.090;2023-11-19T11:55:23;10.00;;;9.70;;
20179;SDS011;10249;48.900;9.090;2023-11-19T11:57:51;10.87;;;10.47;;
20179;SDS011;10249;48.900;9.090;2023-11-19T12:00:21;10.97;;;10.57;;
20179;SDS011;10249;48.900;9.090;2023-11-19T12:02:48;10.80;;;10.40;;
20179;SDS011;10249;48.900;9.090;2023-11-19T12:05:17;10.83;;;10.43;;
20179;SDS011;10249;48.900;9.090;2023-11-19T12:07:49;10.50;;;10.10;;
20179;SDS011;10249;48.900;9.090;2023-11-19T12:10:22;10.60;;;10.20;;
20179;SDS011;10249;48.900;9.090;2023-11-19T12:12:52;10.97;;;10.57;;
20179;SDS011;10249;48.900;9.090;2023-11-19T12:15:19;10.57;;;10.17;;
20179;SDS011;10249;48.900;9.090;2023-11-19T12:17:50;10.30;;;9.90;;
20179;SDS011;10249;48.900;9.090;2023-11-19T12:20:19;10.40;;;10.00;;
20179;SDS011;10249;48.900;9.090;2023-11-19T12:22:46;10.87;;;10.47;;
20179;SDS011;10249;48.900;9.090;2023-11-19T12:25:14;11.20;;;10.80;;
20179;SDS011;10249;48.900;9.090;2023-11-19T12:27:43;11.10;;;10.70;;
20179;SDS011;10249;48.900;9.090;2023-11-19T12:30:11;11.53;;;11.13;;
20179;SDS011;10249;48.900;9.090;2023-11-19T12:32:39;11.50;;;11.10;;
20179;SDS011;10249;48.900;9.090;2023-11-19T12:35:06;11.90;;;11.40;;
20179;SDS011;10249;48.900;9.090;2023-11-19T12:37:44;11.70;;;11.20;;
20179;SDS011;10249;48.900;9.090;2023-11-19T12:40:14;11.30;;;10.90;;
20179;SDS011;10249;48.900;9.090;2023-11-19T12:42:42;11.50;;;11.10;;
20179;SDS011;10249;48.900;9.090;2023-11-19T12:45:09;11.67;;;11.27;;
20179;SDS011;10249;48.900;9.090;2023-11-19T12:47:37;11.90;;;11.50;;
20179;SDS011;10249;48.900;9.090;2023-11-19T12:50:05;11.43;;;11.03;;
20179;SDS011;10249;48.900;9.090;2023-11-19T12:52:32;11.40;;;11.00;;
20179;SDS011;10249;48.900;9.090;2023-11-19T12:55:01;11.60;;;11.10;;
20179;SDS011;10249;48.900;9.090;2023-11-19T12:57:38;11.10;;;10.70;;
20179;SDS011;10249;48.900;9.090;2023-11-19T13:00:05;11.30;;;10.90;;
20179;SDS011;10249;48.900;9.090;2023-11-19T13:02:45;10.90;;;10.50;;
20179;SDS011;10249;48.900;9.090;2023-11-19T13:05:22;10.77;;;10.37;;
20179;SDS011;10249;48.900;9.090;2023-11-19T13:07:49;11.50;;;10.90;;
20179;SDS011;10249;48.900;9.090;2023-11-19T13:10:18;11.43;;;11.03;;
20179;SDS011;10249;48.900;9.090;2023-11-19T13:12:58;12.00;;;11.50;;
20179;SDS011;10249;48.900;9.090;2023-11-19T13:15:27;11.50;;;11.10;;
20179;SDS011;10249;48.900;9.090;2023-11-19T13:17:54;11.70;;;11.30;;
20179;SDS011;10249;48.900;9.090;2023-11-19T13:20:21;11.50;;;11.10;;
20179;SDS011;10249;48.900;9.090;2023-11-19T13:22:55;11.90;;;11.40;;
20179;SDS011;10249;48.900;9.090;2023-11-19T13:25:23;12.63;;;12.13;;
20179;SDS011;10249;48.900;9.090;2023-11-19T13:27:51;37.03;;;35.73;;
20179;SDS011;10249;48.900;9.090;2023-11-19T13:30:18;37.60;;;36.30;;
20179;SDS011;10249;48.900;9.090;2023-11-19T13:32:45;37.77;;;36.47;;
20179;SDS011;10249;48.900;9.090;2023-11-19T13:35:12;38.77;;;37.40;;
20179;SDS011;10249;48.900;9.090;2023-11-19T13:37:39;38.50;;;37.20;;
20179;SDS011;10249;48.900;9.090;2023-11-19T13:40:07;38.57;;;37.27;;
20179;SDS011;10249;48.900;9.090;2023-11-19T13:42:40;37.50;;;36.20;;
20179;SDS011;10249;48.900;9.090;2023-11-19T13:45:08;39.30;;;37.90;;
20179;SDS011;10249;48.900;9.090;2023-11-19T13:47:37;40.17;;;38.77;;
20179;SDS011;10249;48.900;9.090;2023-11-19T13:50:06;39.50;;;38.10;;
20179;SDS011;10249;48.900;9.090;2023-11-19T13:52:34;39.43;;;38.03;;
20179;SDS011;10249;48.900;9.090;2023-11-19T13:55:03;38.73;;;37.33;;
20179;SDS011;10249;48.900;9.090;2023-11-19T13:57:31;38.23;;;36.93;;
20179;SDS011;10249;48.900;9.090;2023-11-19T14:00:00;39.20;;;37.80;;
20179;SDS011;10249;48.900;9.090;2023-11-19T14:02:30;39.40;;;38.00;;
20179;SDS011;10249;48.900;9.090;2023-11-19T14:04:57;40.03;;;38.63;;
20179;SDS011;10249;48.900;9.090;2023-11-19T14:07:24;39.00;;;37.60;;
20179;SDS011;10249;48.900;9.090;2023-11-19T14:09:52;42.50;;;41.00;;
20179;SDS011;10249;48.900;9.090;2023-11-19T14:12:19;41.90;;;40.40;;
20179;SDS011;10249;48.900;9.090;2023-11-19T14:14:47;42.07;;;40.57;;
20179;SDS011;10249;48.900;9.090;2023-11-19T14:17:15;41.87;;;40.37;;
20179;SDS011;10249;48.900;9.090;2023-11-19T14:19:43;42.10;;;40.60;;
20179;SDS011;10249;48.900;9.090;2023-11-19T14:22:10;41.50;;;40.00;;
20179;SDS011;10249;48.900;9.090;2023-11-19T14:24:37;41.13;;;39.63;;
20179;SDS011;10249;48.900;9.090;2023-11-19T14:27:07;41.10;;;39.60;;
20179;SDS011;10249;48.900;9.090;2023-11-19T14:29:34;41.67;;;40.17;;
20179;SDS011;10249;48.900;9.090;2023-11-19T14:32:02;42.87;;;41.37;;
20179;SDS011;10249;48.900;9.090;2023-11-19T14:34:30;39.87;;;38.47;;
20179;SDS011;10249;48.900;9.090;2023-11-19T14:36:58;40.23;;;38.83;;
20179;SDS011;10249;48.900;9.090;2023-11-19T14:39:25;42.47;;;40.97;;
20179;SDS011;10249;48.900;9.090;2023-11-19T14:41:53;41.20;;;39.70;;
20179;SDS011;10249;48.900;9.090;2023-11-19T14:44:23;40.97;;;39.47;;
20179;SDS011;10249;48.900;9.090;2023-11-19T14:46:50;40.77;;;39.27;;
20179;SDS011;10249;48.900;9.090;2023-11-19T14:49:17;39.97;;;38.57;;
20179;SDS011;10249;48.900;9.090;2023-11-19T14:51:46;41.77;;;40.27;;